ACA210 CYVR-CYEG
Flight info
| Callsign | ACA210 |
|---|---|
| Flight time | N/A |
| Altitude | 37000 |
| Route | VIDRI Q949 ELLKS ELLKS3 |
| Aircraft | B38M/M-SDE1FGHILORVWXY/HB1 |
Departure
| Time | N/A |
|---|---|
| Airport | Vancouver International Airport (CYVR) |
Arrival
| Time | 2026-04-29 18:59 |
|---|---|
| Airport | Edmonton International Airport (CYEG) |
| Time | Latitude | Longitude | Altitude | Speed | Heading |
|---|---|---|---|---|---|
| 2026-04-29 18:50 | 53.27435 | -114.62341 | 17602 ft | 374 kts | 83° |
| 2026-04-29 18:50 | 53.27581 | -114.57982 | 16928 ft | 377 kts | 83° |
| 2026-04-29 18:51 | 53.27710 | -114.53574 | 16244 ft | 381 kts | 84° |
| 2026-04-29 18:51 | 53.27825 | -114.49108 | 15536 ft | 386 kts | 84° |
| 2026-04-29 18:51 | 53.27932 | -114.44603 | 14801 ft | 391 kts | 85° |
| 2026-04-29 18:51 | 53.28038 | -114.40044 | 14090 ft | 394 kts | 85° |
| 2026-04-29 18:52 | 53.28141 | -114.35435 | 13091 ft | 402 kts | 85° |
| 2026-04-29 18:52 | 53.28244 | -114.30744 | 12338 ft | 403 kts | 85° |
| 2026-04-29 18:52 | 53.28343 | -114.26148 | 11883 ft | 397 kts | 85° |
| 2026-04-29 18:52 | 53.28440 | -114.21584 | 11097 ft | 389 kts | 84° |
| 2026-04-29 18:53 | 53.28534 | -114.17090 | 10150 ft | 384 kts | 84° |
| 2026-04-29 18:53 | 53.28624 | -114.12671 | 9287 ft | 376 kts | 84° |
| 2026-04-29 18:53 | 53.28710 | -114.08366 | 8621 ft | 364 kts | 84° |
| 2026-04-29 18:53 | 53.28788 | -114.04215 | 8056 ft | 351 kts | 86° |
| 2026-04-29 18:54 | 53.28410 | -114.00242 | 7574 ft | 342 kts | 104° |
| 2026-04-29 18:54 | 53.27764 | -113.96499 | 7152 ft | 329 kts | 103° |
| 2026-04-29 18:54 | 53.27165 | -113.92888 | 6760 ft | 315 kts | 102° |
| 2026-04-29 18:54 | 53.26604 | -113.89481 | 6393 ft | 297 kts | 103° |
| 2026-04-29 18:55 | 53.26063 | -113.86192 | 5957 ft | 289 kts | 103° |
| 2026-04-29 18:55 | 53.25541 | -113.83013 | 5593 ft | 279 kts | 104° |
| 2026-04-29 18:55 | 53.25044 | -113.79988 | 5252 ft | 259 kts | 104° |
| 2026-04-29 18:55 | 53.24591 | -113.77236 | 4960 ft | 233 kts | 104° |
| 2026-04-29 18:56 | 53.24181 | -113.74744 | 4643 ft | 213 kts | 104° |
| 2026-04-29 18:56 | 53.23866 | -113.72511 | 4416 ft | 188 kts | 96° |
| 2026-04-29 18:56 | 53.23834 | -113.70472 | 4227 ft | 164 kts | 81° |
| 2026-04-29 18:56 | 53.24109 | -113.68703 | 4043 ft | 154 kts | 65° |
| 2026-04-29 18:57 | 53.24625 | -113.67164 | 3850 ft | 151 kts | 49° |
| 2026-04-29 18:57 | 53.25345 | -113.65920 | 3655 ft | 148 kts | 36° |
| 2026-04-29 18:57 | 53.26203 | -113.64993 | 3467 ft | 147 kts | 28° |
| 2026-04-29 18:57 | 53.27064 | -113.64067 | 3263 ft | 147 kts | 31° |
| 2026-04-29 18:58 | 53.27905 | -113.63103 | 3005 ft | 148 kts | 32° |
| 2026-04-29 18:58 | 53.28764 | -113.62097 | 2758 ft | 153 kts | 31° |
| 2026-04-29 18:58 | 53.29639 | -113.61078 | 2515 ft | 153 kts | 33° |
| 2026-04-29 18:58 | 53.30493 | -113.60084 | 2427 ft | 146 kts | 33° |
| 2026-04-29 18:59 | 53.31281 | -113.59163 | 2391 ft | 122 kts | 36° |
| 2026-04-29 18:59 | 53.31766 | -113.58596 | 2386 ft | 55 kts | 35° |
| 2026-04-29 18:59 | 53.31987 | -113.58337 | 2385 ft | 41 kts | 35° |
| 2026-04-29 18:59 | 53.32216 | -113.58010 | 2392 ft | 43 kts | 64° |
| 2026-04-29 19:00 | 53.32248 | -113.57798 | 2387 ft | 0 kts | 81° |
| 2026-04-29 19:00 | 53.32248 | -113.57796 | 2387 ft | 1 kts | 81° |
| 2026-04-29 19:00 | 53.32254 | -113.57724 | 2387 ft | 11 kts | 86° |
| 2026-04-29 19:00 | 53.32199 | -113.57683 | 2387 ft | 12 kts | 209° |
| 2026-04-29 19:01 | 53.32107 | -113.57788 | 2390 ft | 20 kts | 215° |
| 2026-04-29 19:01 | 53.31979 | -113.57937 | 2389 ft | 26 kts | 215° |
| 2026-04-29 19:01 | 53.31804 | -113.58142 | 2389 ft | 35 kts | 215° |
| 2026-04-29 19:01 | 53.31582 | -113.58401 | 2387 ft | 43 kts | 215° |
| 2026-04-29 19:02 | 53.31323 | -113.58701 | 2387 ft | 44 kts | 216° |
| 2026-04-29 19:02 | 53.31166 | -113.58885 | 2386 ft | 31 kts | 215° |
| 2026-04-29 19:02 | 53.31074 | -113.58918 | 2390 ft | 7 kts | 141° |
| 2026-04-29 19:02 | 53.31035 | -113.58833 | 2386 ft | 7 kts | 108° |
| 2026-04-29 19:03 | 53.31021 | -113.58755 | 2386 ft | 9 kts | 113° |
| 2026-04-29 19:03 | 53.31005 | -113.58695 | 2387 ft | 4 kts | 114° |
| 2026-04-29 19:03 | 53.31003 | -113.58688 | 2387 ft | 0 kts | 114° |